createdAt,value
2023-05-06T00:02:08.304Z,15.87
2023-05-06T00:04:36.037Z,15.85
2023-05-06T00:07:03.946Z,15.85
2023-05-06T00:09:33.000Z,15.83
2023-05-06T00:12:00.710Z,15.83
2023-05-06T00:14:28.418Z,15.80
2023-05-06T00:16:56.137Z,15.80
2023-05-06T00:19:24.114Z,15.78
2023-05-06T00:21:51.792Z,15.77
2023-05-06T00:24:19.468Z,15.75
2023-05-06T00:26:48.620Z,15.74
2023-05-06T00:29:16.424Z,15.67
2023-05-06T00:31:45.229Z,15.73
2023-05-06T00:34:13.030Z,15.71
2023-05-06T00:36:42.768Z,15.70
2023-05-06T00:39:10.848Z,15.68
2023-05-06T00:41:38.594Z,15.65
2023-05-06T00:44:07.675Z,15.64
2023-05-06T00:46:35.720Z,15.63
2023-05-06T00:49:03.665Z,15.61
2023-05-06T00:51:32.174Z,15.61
2023-05-06T00:54:00.234Z,15.59
2023-05-06T00:56:28.235Z,15.57
2023-05-06T00:58:56.145Z,15.55
2023-05-06T01:01:25.560Z,15.54
2023-05-06T01:03:57.538Z,15.53
2023-05-06T01:06:30.853Z,15.51
2023-05-06T01:09:05.985Z,15.49
2023-05-06T01:11:42.435Z,15.48
2023-05-06T01:14:19.128Z,15.48
2023-05-06T01:16:49.292Z,15.46
2023-05-06T01:19:35.218Z,15.46
2023-05-06T01:22:06.037Z,15.43
2023-05-06T01:24:39.769Z,15.41
2023-05-06T01:27:07.849Z,15.41
2023-05-06T01:29:37.853Z,15.40
2023-05-06T01:32:22.037Z,15.40
2023-05-06T01:34:56.777Z,15.37
2023-05-06T01:37:31.464Z,15.36
2023-05-06T01:40:01.893Z,15.35
2023-05-06T01:42:31.257Z,15.33
2023-05-06T01:45:03.246Z,15.32
2023-05-06T01:47:31.349Z,15.31
2023-05-06T01:50:00.328Z,15.30
2023-05-06T01:52:28.128Z,15.28
2023-05-06T01:54:55.817Z,15.27
2023-05-06T01:57:24.892Z,15.25
2023-05-06T01:59:52.818Z,15.23
2023-05-06T02:02:20.591Z,15.23
2023-05-06T02:04:48.293Z,15.22
2023-05-06T02:07:15.959Z,15.21
2023-05-06T02:09:43.678Z,15.20
2023-05-06T02:12:11.427Z,15.19
2023-05-06T02:14:40.482Z,15.18
2023-05-06T02:17:08.272Z,15.17
2023-05-06T02:19:36.039Z,15.15
2023-05-06T02:22:03.781Z,15.15
2023-05-06T02:24:31.502Z,15.14
2023-05-06T02:26:59.172Z,15.11
2023-05-06T02:29:26.883Z,15.10
2023-05-06T02:31:56.122Z,15.11
2023-05-06T02:34:23.880Z,15.08
2023-05-06T02:36:51.576Z,15.06
2023-05-06T02:39:19.374Z,15.06
2023-05-06T02:41:47.080Z,15.02
2023-05-06T02:44:14.785Z,15.03
2023-05-06T02:46:43.617Z,15.03
2023-05-06T02:49:12.691Z,15.00
2023-05-06T02:51:40.452Z,15.00
2023-05-06T02:54:08.125Z,14.98
2023-05-06T02:56:36.259Z,14.96
2023-05-06T02:59:04.601Z,14.95
2023-05-06T03:01:32.319Z,14.93
2023-05-06T03:04:00.079Z,14.93
2023-05-06T03:06:29.197Z,14.94
2023-05-06T03:08:56.929Z,14.92
2023-05-06T03:11:24.805Z,14.90
2023-05-06T03:13:52.526Z,14.89
2023-05-06T03:16:20.234Z,14.87
2023-05-06T03:18:47.979Z,14.87
2023-05-06T03:21:15.823Z,14.85
2023-05-06T03:23:44.934Z,14.83
2023-05-06T03:26:12.652Z,14.83
2023-05-06T03:28:41.953Z,14.82
2023-05-06T03:31:09.840Z,14.74
2023-05-06T03:33:37.659Z,14.79
2023-05-06T03:36:06.100Z,14.78
2023-05-06T03:38:33.943Z,14.78
2023-05-06T03:41:03.092Z,14.76
2023-05-06T03:43:30.838Z,14.76
2023-05-06T03:45:58.920Z,14.75
2023-05-06T03:48:26.630Z,14.75
2023-05-06T03:50:54.363Z,14.73
2023-05-06T03:53:22.545Z,14.72
2023-05-06T03:55:50.385Z,14.70
2023-05-06T03:58:19.432Z,14.69
2023-05-06T04:00:47.162Z,14.67
2023-05-06T04:03:14.960Z,14.65
2023-05-06T04:05:42.687Z,14.64
2023-05-06T04:08:10.440Z,14.63
2023-05-06T04:10:40.973Z,14.61
2023-05-06T04:13:08.751Z,14.61
2023-05-06T04:15:38.653Z,14.58
2023-05-06T04:18:07.507Z,14.48
2023-05-06T04:20:35.783Z,14.57
2023-05-06T04:23:03.578Z,14.56
2023-05-06T04:25:31.276Z,14.54
2023-05-06T04:27:58.989Z,14.53
2023-05-06T04:30:27.177Z,14.51
2023-05-06T04:32:56.296Z,14.49
2023-05-06T04:35:24.088Z,14.49
2023-05-06T04:37:51.759Z,14.48
2023-05-06T04:40:19.744Z,14.46
2023-05-06T04:42:47.412Z,14.45
2023-05-06T04:45:15.720Z,14.44
2023-05-06T04:47:43.531Z,14.43
2023-05-06T04:50:13.569Z,14.43
2023-05-06T04:52:41.296Z,14.42
2023-05-06T04:55:11.252Z,14.42
2023-05-06T04:57:39.193Z,14.44
2023-05-06T05:00:10.359Z,14.40
2023-05-06T05:02:38.425Z,14.42
2023-05-06T05:05:07.267Z,14.41
2023-05-06T05:07:36.468Z,14.41
2023-05-06T05:10:04.528Z,14.42
2023-05-06T05:12:32.480Z,14.41
2023-05-06T05:15:00.208Z,14.41
2023-05-06T05:17:27.911Z,14.41
2023-05-06T05:19:55.636Z,14.40
2023-05-06T05:22:23.354Z,14.40
2023-05-06T05:24:52.392Z,14.40
2023-05-06T05:27:20.486Z,14.39
2023-05-06T05:29:48.311Z,14.39
2023-05-06T05:32:16.189Z,14.40
2023-05-06T05:34:43.902Z,14.40
2023-05-06T05:37:11.679Z,14.41
2023-05-06T05:39:39.374Z,14.41
2023-05-06T05:42:08.443Z,14.40
2023-05-06T05:44:36.184Z,14.39
2023-05-06T05:47:04.000Z,14.40
2023-05-06T05:49:31.721Z,14.40
2023-05-06T05:51:59.459Z,14.40
2023-05-06T05:54:27.211Z,14.39
2023-05-06T05:56:54.954Z,14.38
2023-05-06T05:59:24.037Z,14.37
2023-05-06T06:01:51.833Z,14.37
2023-05-06T06:04:19.663Z,14.37
2023-05-06T06:06:47.540Z,14.37
2023-05-06T06:09:16.735Z,14.36
2023-05-06T06:11:44.489Z,14.35
2023-05-06T06:14:12.308Z,14.36
2023-05-06T06:16:41.456Z,14.37
2023-05-06T06:19:09.334Z,14.37
2023-05-06T06:21:37.082Z,14.38
2023-05-06T06:24:05.508Z,14.38
2023-05-06T06:26:33.336Z,14.40
2023-05-06T06:29:01.157Z,14.41
2023-05-06T06:31:29.283Z,14.43
2023-05-06T06:33:58.514Z,14.45
2023-05-06T06:36:26.302Z,14.47
2023-05-06T06:38:54.030Z,14.49
2023-05-06T06:41:21.704Z,14.55
2023-05-06T06:43:49.400Z,14.58
2023-05-06T06:46:17.227Z,14.62
2023-05-06T06:48:45.033Z,14.64
2023-05-06T06:51:14.074Z,14.68
2023-05-06T06:53:41.767Z,14.71
2023-05-06T06:56:11.816Z,14.72
2023-05-06T06:58:39.628Z,14.75
2023-05-06T07:01:07.421Z,14.78
2023-05-06T07:03:35.120Z,14.80
2023-05-06T07:06:02.852Z,14.83
2023-05-06T07:08:31.880Z,14.86
2023-05-06T07:10:59.609Z,14.87
2023-05-06T07:13:27.337Z,14.88
2023-05-06T07:15:55.003Z,14.88
2023-05-06T07:18:22.720Z,14.89
2023-05-06T07:20:50.515Z,14.91
2023-05-06T07:23:18.192Z,14.92
2023-05-06T07:25:47.229Z,14.94
2023-05-06T07:28:15.617Z,14.94
2023-05-06T07:30:43.768Z,14.94
2023-05-06T07:33:11.583Z,14.96
2023-05-06T07:35:39.280Z,14.96
2023-05-06T07:38:06.956Z,14.99
2023-05-06T07:40:34.831Z,15.01
2023-05-06T07:43:04.530Z,15.02
2023-05-06T07:45:32.300Z,15.04
2023-05-06T07:48:00.200Z,15.04
2023-05-06T07:50:27.904Z,15.06
2023-05-06T07:52:55.589Z,15.08
2023-05-06T07:55:23.330Z,15.10
2023-05-06T07:57:51.140Z,15.13
2023-05-06T08:00:20.439Z,15.15
2023-05-06T08:02:48.676Z,15.17
2023-05-06T08:05:17.275Z,15.18
2023-05-06T08:07:45.128Z,15.26
2023-05-06T08:10:12.878Z,15.29
2023-05-06T08:12:40.687Z,15.28
2023-05-06T08:15:09.983Z,15.30
2023-05-06T08:17:39.263Z,15.32
2023-05-06T08:20:08.119Z,15.32
2023-05-06T08:22:35.838Z,15.35
2023-05-06T08:25:03.940Z,15.37
2023-05-06T08:27:31.680Z,15.42
2023-05-06T08:29:59.405Z,15.37
2023-05-06T08:32:27.160Z,15.45
2023-05-06T08:34:56.338Z,15.48
2023-05-06T08:37:24.100Z,15.54
2023-05-06T08:39:51.774Z,15.59
2023-05-06T08:42:19.554Z,15.65
2023-05-06T08:44:47.407Z,15.72
2023-05-06T08:47:15.151Z,15.77
2023-05-06T08:49:42.881Z,15.85
2023-05-06T08:52:12.690Z,15.93
2023-05-06T08:54:42.021Z,16.00
2023-05-06T08:57:12.860Z,16.05
2023-05-06T08:59:42.441Z,16.07
2023-05-06T09:02:11.236Z,16.09
2023-05-06T09:04:39.708Z,16.09
2023-05-06T09:07:07.420Z,16.12
2023-05-06T09:09:36.882Z,16.12
2023-05-06T09:12:05.835Z,16.13
2023-05-06T09:14:33.501Z,16.14
2023-05-06T09:17:01.354Z,16.15
2023-05-06T09:19:29.152Z,16.18
2023-05-06T09:21:57.283Z,16.24
2023-05-06T09:24:25.554Z,16.28
2023-05-06T09:26:55.508Z,16.36
2023-05-06T09:29:23.277Z,16.37
2023-05-06T09:31:52.655Z,16.38
2023-05-06T09:34:21.141Z,16.42
2023-05-06T09:36:48.876Z,16.46
2023-05-06T09:39:16.554Z,16.48
2023-05-06T09:41:44.560Z,16.50
2023-05-06T09:44:14.065Z,16.54
2023-05-06T09:46:42.189Z,16.54
2023-05-06T09:49:10.261Z,16.60
2023-05-06T09:51:38.706Z,16.61
2023-05-06T09:54:07.034Z,16.64
2023-05-06T09:56:35.424Z,16.66
2023-05-06T09:59:04.254Z,16.67
2023-05-06T10:01:37.570Z,16.69
2023-05-06T10:04:09.669Z,16.84
2023-05-06T10:06:40.771Z,16.81
2023-05-06T10:09:09.346Z,16.82
2023-05-06T10:11:38.615Z,16.82
2023-05-06T10:14:07.695Z,16.85
2023-05-06T10:16:40.056Z,16.87
2023-05-06T10:19:09.345Z,16.91
2023-05-06T10:21:41.195Z,16.96
2023-05-06T10:24:12.390Z,17.05
2023-05-06T10:26:42.024Z,17.26
2023-05-06T10:29:11.204Z,17.24
2023-05-06T10:31:47.303Z,17.25
2023-05-06T10:34:18.395Z,17.24
2023-05-06T10:36:47.378Z,17.26
2023-05-06T10:39:15.444Z,17.25
2023-05-06T10:41:43.374Z,17.27
2023-05-06T10:44:11.919Z,17.33
2023-05-06T10:46:59.722Z,17.37
2023-05-06T10:49:27.861Z,17.60
2023-05-06T10:52:17.211Z,17.73
2023-05-06T10:54:52.188Z,17.64
2023-05-06T10:57:22.499Z,17.61
2023-05-06T11:00:00.046Z,17.61
2023-05-06T11:02:31.657Z,17.61
2023-05-06T11:05:01.900Z,17.82
2023-05-06T11:07:29.711Z,17.78
2023-05-06T11:09:59.305Z,17.80
2023-05-06T11:12:47.640Z,17.78
2023-05-06T11:15:39.146Z,17.79
2023-05-06T11:18:48.303Z,17.88
2023-05-06T11:21:40.145Z,17.83
2023-05-06T11:24:12.122Z,17.85
2023-05-06T11:26:44.083Z,17.81
2023-05-06T11:29:12.116Z,17.85
2023-05-06T11:31:42.006Z,17.85
2023-05-06T11:34:13.332Z,17.84
2023-05-06T11:36:56.734Z,17.82
2023-05-06T11:39:24.515Z,17.84
2023-05-06T11:41:54.322Z,17.84
2023-05-06T11:44:26.468Z,17.84
2023-05-06T11:46:57.994Z,17.84
2023-05-06T11:49:27.923Z,17.96
2023-05-06T11:51:57.009Z,18.01
2023-05-06T11:54:27.617Z,18.09
2023-05-06T11:56:57.278Z,18.11
2023-05-06T11:59:30.543Z,18.11
2023-05-06T12:01:59.841Z,18.11
2023-05-06T12:04:29.382Z,18.16
2023-05-06T12:06:58.025Z,18.19
2023-05-06T12:09:26.401Z,18.21
2023-05-06T12:11:55.029Z,18.23
2023-05-06T12:14:23.187Z,18.23
2023-05-06T12:16:51.090Z,18.25
2023-05-06T12:19:18.914Z,18.28
2023-05-06T12:21:48.000Z,18.30
2023-05-06T12:24:15.796Z,18.31
2023-05-06T12:26:45.733Z,18.34
2023-05-06T12:29:17.212Z,18.43
2023-05-06T12:31:47.083Z,18.46
2023-05-06T12:34:16.098Z,18.46
2023-05-06T12:36:45.680Z,18.56
2023-05-06T12:39:17.510Z,18.61
2023-05-06T12:41:46.451Z,18.59
2023-05-06T12:44:33.783Z,18.59
2023-05-06T12:47:02.983Z,18.59
2023-05-06T12:49:48.530Z,18.58
2023-05-06T12:52:17.070Z,18.59
2023-05-06T12:54:46.500Z,18.61
2023-05-06T12:57:14.587Z,18.76
2023-05-06T12:59:44.154Z,18.88
2023-05-06T13:02:12.017Z,18.90
2023-05-06T13:04:39.848Z,18.85
2023-05-06T13:07:07.675Z,18.76
2023-05-06T13:09:35.513Z,18.80
2023-05-06T13:12:05.429Z,18.82
2023-05-06T13:14:33.150Z,18.80
2023-05-06T13:17:04.627Z,18.98
2023-05-06T13:19:33.472Z,18.97
2023-05-06T13:22:02.086Z,19.07
2023-05-06T13:24:29.938Z,19.08
2023-05-06T13:26:59.826Z,19.11
2023-05-06T13:29:29.580Z,19.27
2023-05-06T13:31:57.681Z,19.21
2023-05-06T13:34:25.941Z,19.26
2023-05-06T13:36:54.566Z,19.22
2023-05-06T13:39:22.584Z,19.26
2023-05-06T13:41:50.998Z,19.27
2023-05-06T13:44:19.022Z,19.31
2023-05-06T13:46:48.397Z,19.32
2023-05-06T13:49:16.189Z,19.43
2023-05-06T13:51:43.936Z,19.43
2023-05-06T13:54:11.714Z,19.45
2023-05-06T13:56:39.493Z,19.40
2023-05-06T13:59:08.149Z,19.35
2023-05-06T14:01:36.606Z,19.40
2023-05-06T14:04:06.028Z,19.44
2023-05-06T14:06:33.771Z,19.43
2023-05-06T14:09:01.546Z,19.42
2023-05-06T14:11:29.269Z,19.41
2023-05-06T14:13:57.339Z,19.43
2023-05-06T14:16:25.128Z,19.44
2023-05-06T14:18:53.472Z,19.56
2023-05-06T14:21:23.138Z,19.62
2023-05-06T14:23:50.860Z,19.64
2023-05-06T14:26:18.577Z,19.65
2023-05-06T14:28:46.239Z,19.63
2023-05-06T14:31:13.927Z,19.61
2023-05-06T14:33:41.649Z,19.62
2023-05-06T14:36:09.756Z,19.59
2023-05-06T14:38:38.827Z,19.57
2023-05-06T14:41:06.632Z,19.55
2023-05-06T14:43:34.361Z,19.54
2023-05-06T14:46:02.217Z,19.53
2023-05-06T14:48:30.046Z,19.53
2023-05-06T14:50:57.734Z,19.57
2023-05-06T14:53:25.429Z,19.57
2023-05-06T14:55:56.397Z,19.58
2023-05-06T14:58:24.207Z,19.66
2023-05-06T15:00:52.025Z,19.65
2023-05-06T15:03:19.791Z,19.62
2023-05-06T15:05:47.561Z,19.60
2023-05-06T15:08:15.352Z,19.60
2023-05-06T15:10:43.093Z,19.55
2023-05-06T15:13:12.364Z,19.60
2023-05-06T15:15:40.108Z,19.59
2023-05-06T15:18:07.881Z,19.57
2023-05-06T15:20:35.679Z,19.54
2023-05-06T15:23:03.353Z,19.50
2023-05-06T15:25:36.001Z,19.47
2023-05-06T15:28:05.484Z,19.47
2023-05-06T15:30:34.574Z,19.51
2023-05-06T15:33:03.113Z,19.43
2023-05-06T15:35:31.683Z,19.52
2023-05-06T15:37:59.511Z,19.50
2023-05-06T15:40:27.837Z,19.52
2023-05-06T15:42:55.830Z,19.49
2023-05-06T15:45:23.664Z,19.48
2023-05-06T15:47:54.115Z,19.46
2023-05-06T15:50:32.780Z,19.45
2023-05-06T15:53:02.275Z,19.43
2023-05-06T15:55:34.971Z,19.40
2023-05-06T15:58:09.143Z,19.40
2023-05-06T16:00:36.852Z,19.38
2023-05-06T16:03:08.082Z,19.38
2023-05-06T16:05:37.681Z,19.30
2023-05-06T16:08:05.673Z,19.36
2023-05-06T16:10:35.408Z,19.35
2023-05-06T16:13:03.165Z,19.35
2023-05-06T16:15:30.932Z,19.34
2023-05-06T16:17:58.769Z,19.33
2023-05-06T16:20:27.896Z,19.32
2023-05-06T16:22:55.614Z,19.32
2023-05-06T16:25:23.931Z,19.31
2023-05-06T16:27:51.644Z,19.30
2023-05-06T16:30:19.428Z,19.30
2023-05-06T16:32:47.144Z,19.30
2023-05-06T16:35:15.155Z,19.28
2023-05-06T16:37:44.614Z,19.26
2023-05-06T16:40:13.570Z,19.23
2023-05-06T16:42:41.585Z,19.21
2023-05-06T16:45:09.927Z,19.20
2023-05-06T16:47:37.897Z,19.18
2023-05-06T16:50:06.576Z,19.17
2023-05-06T16:52:34.454Z,19.16
2023-05-06T16:55:04.034Z,19.14
2023-05-06T16:57:31.793Z,19.13
2023-05-06T16:59:59.652Z,19.12
2023-05-06T17:02:27.443Z,19.10
2023-05-06T17:04:55.219Z,19.09
2023-05-06T17:07:23.007Z,19.08
2023-05-06T17:09:50.740Z,19.07
2023-05-06T17:12:20.560Z,19.06
2023-05-06T17:14:48.382Z,19.06
2023-05-06T17:17:16.074Z,19.04
2023-05-06T17:19:43.780Z,19.03
2023-05-06T17:22:11.516Z,19.02
2023-05-06T17:24:39.230Z,19.00
2023-05-06T17:27:06.984Z,18.99
2023-05-06T17:29:36.035Z,18.98
2023-05-06T17:32:03.758Z,18.97
2023-05-06T17:34:32.814Z,18.96
2023-05-06T17:37:02.577Z,18.95
2023-05-06T17:39:30.280Z,18.93
2023-05-06T17:41:57.987Z,18.93
2023-05-06T17:44:25.966Z,18.92
2023-05-06T17:46:55.100Z,18.90
2023-05-06T17:49:23.440Z,18.89
2023-05-06T17:51:51.227Z,18.87
2023-05-06T17:54:19.387Z,18.85
2023-05-06T17:56:50.386Z,18.86
2023-05-06T17:59:19.777Z,18.85
2023-05-06T18:01:47.697Z,18.82
2023-05-06T18:04:17.029Z,18.81
2023-05-06T18:06:45.647Z,18.80
2023-05-06T18:09:13.389Z,18.79
2023-05-06T18:11:41.139Z,18.79
2023-05-06T18:14:09.117Z,18.77
2023-05-06T18:16:37.414Z,18.74
2023-05-06T18:19:05.397Z,18.74
2023-05-06T18:21:35.934Z,18.72
2023-05-06T18:24:15.356Z,18.71
2023-05-06T18:26:45.829Z,18.70
2023-05-06T18:29:14.354Z,18.70
2023-05-06T18:31:42.243Z,18.69
2023-05-06T18:34:10.031Z,18.70
2023-05-06T18:36:39.097Z,18.69
2023-05-06T18:39:07.170Z,18.68
2023-05-06T18:41:34.885Z,18.68
2023-05-06T18:44:03.771Z,18.67
2023-05-06T18:46:31.625Z,18.64
2023-05-06T18:49:00.767Z,18.66
2023-05-06T18:51:28.532Z,18.66
2023-05-06T18:53:57.564Z,18.65
2023-05-06T18:56:25.351Z,18.64
2023-05-06T18:58:53.141Z,18.63
2023-05-06T19:01:21.053Z,18.63
2023-05-06T19:03:48.908Z,18.61
2023-05-06T19:06:16.644Z,18.61
2023-05-06T19:08:44.578Z,18.60
2023-05-06T19:11:18.136Z,18.59
2023-05-06T19:13:46.463Z,18.58
2023-05-06T19:16:14.865Z,18.52
2023-05-06T19:18:42.678Z,18.56
2023-05-06T19:21:10.770Z,18.55
2023-05-06T19:23:38.623Z,18.53
2023-05-06T19:26:06.975Z,18.50
2023-05-06T19:28:36.275Z,18.51
2023-05-06T19:31:07.625Z,18.51
2023-05-06T19:33:35.462Z,18.49
2023-05-06T19:36:03.187Z,18.48
2023-05-06T19:38:30.994Z,18.46
2023-05-06T19:40:58.703Z,18.46
2023-05-06T19:43:26.436Z,18.44
2023-05-06T19:45:56.098Z,18.44
2023-05-06T19:48:24.204Z,18.42
2023-05-06T19:50:53.873Z,18.41
2023-05-06T19:53:22.756Z,18.40
2023-05-06T19:55:50.820Z,18.39
2023-05-06T19:58:19.320Z,18.37
2023-05-06T20:00:47.070Z,18.37
2023-05-06T20:03:16.381Z,18.35
2023-05-06T20:05:44.174Z,18.35
2023-05-06T20:08:12.218Z,18.33
2023-05-06T20:10:40.133Z,18.33
2023-05-06T20:13:07.953Z,18.33
2023-05-06T20:15:36.393Z,18.32
2023-05-06T20:18:04.418Z,18.30
2023-05-06T20:20:35.944Z,18.29
2023-05-06T20:23:04.060Z,18.29
2023-05-06T20:25:31.901Z,18.24
2023-05-06T20:28:00.396Z,18.26
2023-05-06T20:30:28.218Z,18.26
2023-05-06T20:32:56.302Z,18.24
2023-05-06T20:35:24.296Z,18.23
2023-05-06T20:37:54.482Z,18.21
2023-05-06T20:40:22.582Z,18.21
2023-05-06T20:42:50.328Z,18.19
2023-05-06T20:45:18.163Z,18.18
2023-05-06T20:47:45.920Z,18.17
2023-05-06T20:50:17.042Z,18.16
2023-05-06T20:52:46.002Z,18.14
2023-05-06T20:55:15.794Z,18.13
2023-05-06T20:57:44.214Z,18.12
2023-05-06T21:00:12.846Z,18.12
2023-05-06T21:02:41.992Z,18.11
2023-05-06T21:05:10.429Z,18.08
2023-05-06T21:07:38.342Z,18.07
2023-05-06T21:10:07.053Z,18.06
2023-05-06T21:12:36.290Z,18.04
2023-05-06T21:15:04.355Z,18.03
2023-05-06T21:17:32.137Z,18.02
2023-05-06T21:19:59.901Z,18.00
2023-05-06T21:22:27.614Z,17.99
2023-05-06T21:24:55.919Z,17.98
2023-05-06T21:27:23.677Z,17.95
2023-05-06T21:29:52.734Z,17.94
2023-05-06T21:32:20.491Z,17.92
2023-05-06T21:34:48.228Z,17.90
2023-05-06T21:37:15.960Z,17.88
2023-05-06T21:39:43.638Z,17.87
2023-05-06T21:42:11.395Z,17.85
2023-05-06T21:44:39.096Z,17.84
2023-05-06T21:47:08.205Z,17.83
2023-05-06T21:49:35.938Z,17.80
2023-05-06T21:52:03.885Z,17.80
2023-05-06T21:54:32.116Z,17.79
2023-05-06T21:56:59.856Z,17.77
2023-05-06T21:59:27.578Z,17.75
2023-05-06T22:01:55.333Z,17.74
2023-05-06T22:04:24.410Z,17.71
2023-05-06T22:06:52.097Z,17.70
2023-05-06T22:09:21.105Z,17.70
2023-05-06T22:11:48.861Z,17.68
2023-05-06T22:14:18.154Z,17.68
2023-05-06T22:16:47.444Z,17.68
2023-05-06T22:19:15.213Z,17.67
2023-05-06T22:21:44.273Z,17.65
2023-05-06T22:24:11.997Z,17.65
2023-05-06T22:26:40.125Z,17.65
2023-05-06T22:29:07.781Z,17.63
2023-05-06T22:31:35.548Z,17.61
2023-05-06T22:34:04.645Z,17.60
2023-05-06T22:36:33.546Z,17.59
2023-05-06T22:39:02.991Z,17.57
2023-05-06T22:41:30.971Z,17.57
2023-05-06T22:44:00.134Z,17.55
2023-05-06T22:46:28.742Z,17.54
2023-05-06T22:48:56.493Z,17.53
2023-05-06T22:51:24.265Z,17.52
2023-05-06T22:53:52.030Z,17.51
2023-05-06T22:56:21.127Z,17.50
2023-05-06T22:58:48.848Z,17.49
2023-05-06T23:01:16.686Z,17.47
2023-05-06T23:03:44.483Z,17.46
2023-05-06T23:06:12.307Z,17.44
2023-05-06T23:08:40.047Z,17.43
2023-05-06T23:11:08.007Z,17.43
2023-05-06T23:13:37.620Z,17.41
2023-05-06T23:16:07.750Z,17.40
2023-05-06T23:18:35.847Z,17.38
2023-05-06T23:21:03.951Z,17.38
2023-05-06T23:23:32.336Z,17.36
2023-05-06T23:26:00.122Z,17.35
2023-05-06T23:28:27.840Z,17.34
2023-05-06T23:30:56.965Z,17.32
2023-05-06T23:33:24.742Z,17.31
2023-05-06T23:35:52.441Z,17.29
2023-05-06T23:38:20.199Z,17.28
2023-05-06T23:40:47.958Z,17.26
2023-05-06T23:43:15.803Z,17.26
2023-05-06T23:45:43.502Z,17.23
2023-05-06T23:48:12.709Z,17.22
2023-05-06T23:50:40.447Z,17.21
2023-05-06T23:53:08.142Z,17.19
2023-05-06T23:55:36.001Z,17.18
2023-05-06T23:58:03.796Z,17.17
